Time;durP1;ratioP1;P1;durP2;ratioP2;P2;SDS_P1;SDS_P2;PMS_P1;PMS_P2;Temp;Humidity;BMP_temperature;BMP_pressure;BME280_temperature;BME280_humidity;BME280_pressure;Samples;Min_cycle;Max_cycle;Signal;HPM_P1;HPM_P2
2021/08/22 00:01:15;;;;;;;2.23;2.10;;;;;;;23.05;88.94;97488.38;4998535;28;20215;-64
2021/08/22 00:03:42;;;;;;;2.33;2.20;;;;;;;23.05;89.26;97485.81;4985654;28;20642;-65
2021/08/22 00:06:09;;;;;;;2.50;2.30;;;;;;;23.04;89.05;97489.22;4991680;28;20203;-63
2021/08/22 00:08:39;;;;;;;2.30;2.20;;;;;;;23.04;88.89;97487.50;4982848;28;20203;-63
2021/08/22 00:11:05;;;;;;;2.53;2.33;;;;;;;23.04;88.94;97487.50;4986051;28;20194;-63
2021/08/22 00:13:32;;;;;;;2.67;2.47;;;;;;;23.05;88.76;97498.63;4988133;28;20330;-63
2021/08/22 00:15:59;;;;;;;2.40;2.20;;;;;;;23.05;88.98;97494.38;4993104;28;20230;-65
2021/08/22 00:18:26;;;;;;;2.63;2.43;;;;;;;23.04;88.87;97490.06;4992835;28;20203;-62
2021/08/22 00:20:53;;;;;;;2.47;2.27;;;;;;;23.04;89.10;97487.50;4991625;28;20240;-62
2021/08/22 00:23:19;;;;;;;2.90;2.70;;;;;;;23.01;88.34;97484.88;5017674;23;20253;-65
2021/08/22 00:25:46;;;;;;;2.27;2.10;;;;;;;23.04;88.94;97492.63;4992851;28;20207;-64
2021/08/22 00:28:15;;;;;;;2.73;2.20;;;;;;;23.05;89.04;97490.94;4993766;28;20222;-64
2021/08/22 00:30:41;;;;;;;2.80;2.60;;;;;;;23.04;89.00;97484.09;4994711;28;20529;-65
2021/08/22 00:33:08;;;;;;;2.63;2.43;;;;;;;23.06;89.05;97492.66;4986634;28;20262;-65
2021/08/22 00:35:35;;;;;;;2.33;2.23;;;;;;;23.04;88.89;97482.38;4993444;28;20245;-65
2021/08/22 00:38:01;;;;;;;3.10;2.30;;;;;;;23.06;88.85;97479.84;4994266;28;20245;-65
2021/08/22 00:40:28;;;;;;;2.53;2.33;;;;;;;23.01;88.88;97472.03;4994656;28;20578;-65
2021/08/22 00:42:54;;;;;;;2.60;2.20;;;;;;;23.04;88.95;97484.09;4994332;28;20254;-67
2021/08/22 00:45:21;;;;;;;2.57;2.37;;;;;;;23.01;89.11;97473.75;4993623;28;20646;-64
2021/08/22 00:47:48;;;;;;;3.07;2.40;;;;;;;23.04;89.09;97484.09;4993444;28;20203;-63
2021/08/22 00:50:15;;;;;;;2.30;2.20;;;;;;;23.01;88.97;97477.16;4994557;28;20202;-65
2021/08/22 00:52:42;;;;;;;2.70;2.50;;;;;;;22.96;89.02;97476.22;4992432;28;20226;-64
2021/08/22 00:55:09;;;;;;;2.50;2.30;;;;;;;22.84;89.12;97450.31;4991209;28;20250;-64
2021/08/22 00:57:36;;;;;;;2.53;2.33;;;;;;;23.00;89.25;97480.56;4978520;28;20230;-65
2021/08/22 01:00:09;;;;;;;2.50;2.30;;;;;;;22.97;89.12;97482.19;4990827;28;20277;-65
2021/08/22 01:02:43;;;;;;;2.33;2.13;;;;;;;22.99;89.39;97483.97;4989011;28;20218;-65
2021/08/22 01:05:24;;;;;;;2.83;2.20;;;;;;;22.99;89.32;97478.84;4990179;28;20230;-64
2021/08/22 01:08:04;;;;;;;2.20;2.10;;;;;;;23.00;89.17;97478.00;4992562;28;20227;-65
2021/08/22 01:10:32;;;;;;;2.50;2.30;;;;;;;22.98;89.28;97477.09;4992701;28;20560;-66
2021/08/22 01:13:04;;;;;;;2.60;2.40;;;;;;;23.01;89.22;97473.75;4989186;28;20230;-65
2021/08/22 01:15:32;;;;;;;2.40;2.20;;;;;;;23.01;89.25;97471.19;4991044;28;20222;-63
2021/08/22 01:17:59;;;;;;;2.40;2.20;;;;;;;23.02;88.82;97460.97;4992377;28;20199;-65
2021/08/22 01:20:52;;;;;;;2.90;2.57;;;;;;;23.01;89.11;97466.91;4976304;28;20207;-65
2021/08/22 01:23:19;;;;;;;2.50;2.30;;;;;;;22.84;89.55;97440.06;4988940;28;20775;-66
2021/08/22 01:25:46;;;;;;;2.30;2.10;;;;;;;22.97;89.20;97454.88;4982563;28;20684;-64
2021/08/22 01:28:12;;;;;;;2.53;2.33;;;;;;;23.03;89.38;97472.06;4974340;28;20203;-65
2021/08/22 01:30:44;;;;;;;2.50;2.30;;;;;;;23.02;89.13;97471.22;4981796;28;20230;-62
2021/08/22 01:33:12;;;;;;;3.20;2.57;;;;;;;22.97;89.18;97456.56;4976443;28;20671;-63
2021/08/22 01:35:38;;;;;;;2.37;2.17;;;;;;;23.01;89.23;97474.59;4991879;28;20285;-65
2021/08/22 01:38:05;;;;;;;2.60;2.40;;;;;;;23.02;89.29;97476.38;4976557;28;20234;-63
2021/08/22 01:40:31;;;;;;;2.17;2.07;;;;;;;22.83;89.15;97450.28;4981274;28;20226;-65
2021/08/22 01:42:58;;;;;;;2.27;2.17;;;;;;;22.97;89.32;97469.38;4991145;28;20400;-64
2021/08/22 01:45:25;;;;;;;2.93;2.70;;;;;;;23.02;89.29;97478.94;4976347;28;20234;-65
2021/08/22 01:47:51;;;;;;;2.47;2.27;;;;;;;23.04;89.31;97491.78;4979802;28;20194;-65
2021/08/22 01:50:21;;;;;;;2.70;2.50;;;;;;;23.03;89.27;97487.47;4987675;28;20298;-65
2021/08/22 01:52:56;;;;;;;2.40;2.20;;;;;;;22.94;89.40;97470.19;4991999;28;20195;-64
2021/08/22 01:55:22;;;;;;;2.30;2.20;;;;;;;23.01;89.39;97484.88;4981809;28;20253;-64
2021/08/22 01:57:49;;;;;;;2.50;2.30;;;;;;;22.98;88.87;97487.34;4992530;28;20230;-64
2021/08/22 02:00:15;;;;;;;2.60;2.40;;;;;;;23.00;89.38;97511.34;4992453;28;20226;-65
2021/08/22 02:03:08;;;;;;;3.57;2.30;;;;;;;23.03;89.30;97521.66;4993155;28;20566;-64
2021/08/22 02:05:36;;;;;;;2.20;2.10;;;;;;;22.90;89.10;97500.84;4991866;28;20199;-63
2021/08/22 02:08:12;;;;;;;2.50;2.30;;;;;;;23.02;89.28;97522.50;4991290;28;20199;-64
2021/08/22 02:10:43;;;;;;;2.60;2.40;;;;;;;23.04;89.42;97527.66;4991367;28;20226;-65
2021/08/22 02:13:09;;;;;;;2.30;2.20;;;;;;;23.03;89.37;97520.78;4982296;28;20219;-64
2021/08/22 02:15:41;;;;;;;2.50;2.30;;;;;;;23.03;89.19;97521.66;4991542;28;20199;-64
2021/08/22 02:18:12;;;;;;;2.40;2.30;;;;;;;23.03;89.36;97525.91;4990302;28;20207;-63
2021/08/22 02:20:39;;;;;;;2.43;2.23;;;;;;;22.97;89.28;97505.25;4965162;28;20294;-62
2021/08/22 02:23:06;;;;;;;2.67;2.47;;;;;;;22.98;89.29;97517.28;4979614;28;20262;-64
2021/08/22 02:25:33;;;;;;;2.60;2.30;;;;;;;23.04;89.30;97519.97;4968850;28;20593;-62
2021/08/22 02:28:00;;;;;;;2.57;2.37;;;;;;;22.79;89.33;97472.41;4986639;28;20237;-64
2021/08/22 02:30:31;;;;;;;2.40;2.30;;;;;;;23.04;89.35;97507.16;4991285;28;20238;-66
2021/08/22 02:32:57;;;;;;;2.47;2.33;;;;;;;23.02;89.31;97507.13;4962863;28;20643;-66
2021/08/22 02:35:24;;;;;;;2.40;2.20;;;;;;;23.03;89.21;97513.09;4988012;28;20261;-64
2021/08/22 02:37:50;;;;;;;2.37;2.27;;;;;;;23.03;88.84;97531.91;4974408;28;20643;-65
2021/08/22 02:40:17;;;;;;;5.73;2.60;;;;;;;22.92;89.43;97512.84;4992669;28;20242;-65
2021/08/22 02:42:43;;;;;;;2.33;2.17;;;;;;;23.03;89.67;97583.19;4992401;28;20234;-64
2021/08/22 02:45:10;;;;;;;2.47;2.27;;;;;;;23.04;89.37;97584.91;4992354;28;20241;-65
2021/08/22 02:47:37;;;;;;;2.30;2.10;;;;;;;23.03;89.52;97584.88;4990623;28;20294;-64
2021/08/22 02:50:04;;;;;;;2.37;2.17;;;;;;;23.02;89.38;97584.03;4990773;28;20234;-65
2021/08/22 02:52:30;;;;;;;3.60;2.40;;;;;;;23.03;89.42;97580.63;4990471;28;20290;-64
2021/08/22 02:54:57;;;;;;;2.60;2.40;;;;;;;22.90;89.07;97562.34;4992008;28;20337;-65
2021/08/22 02:57:23;;;;;;;4.63;2.20;;;;;;;22.96;89.21;97568.50;4988894;28;20241;-65
2021/08/22 02:59:50;;;;;;;2.17;2.07;;;;;;;23.00;89.41;97569.41;4990787;28;20230;-65
2021/08/22 03:02:16;;;;;;;2.60;2.40;;;;;;;23.00;89.42;97564.28;4991952;28;20207;-64
2021/08/22 03:04:43;;;;;;;2.30;2.10;;;;;;;23.00;89.57;97551.47;4991324;28;20245;-66
2021/08/22 03:07:10;;;;;;;2.80;2.60;;;;;;;22.99;89.52;97557.44;4991308;28;20199;-65
2021/08/22 03:09:36;;;;;;;2.77;2.23;;;;;;;22.97;89.99;97554.84;4991792;28;20273;-65
2021/08/22 03:12:04;;;;;;;2.43;2.23;;;;;;;22.98;89.50;97561.69;4991866;28;20206;-65
2021/08/22 03:14:30;;;;;;;2.37;2.17;;;;;;;22.99;89.44;97566.00;4987121;28;20253;-63
2021/08/22 03:16:57;;;;;;;2.23;2.10;;;;;;;22.95;89.58;97545.38;4991903;28;20290;-65
2021/08/22 03:19:23;;;;;;;2.60;2.30;;;;;;;23.01;89.51;97558.34;4989627;28;20234;-65
2021/08/22 03:21:50;;;;;;;2.50;2.30;;;;;;;23.00;89.49;97556.59;4991330;28;20202;-65
2021/08/22 03:24:16;;;;;;;2.47;2.27;;;;;;;23.00;90.13;97552.34;4989459;28;20269;-66
2021/08/22 03:26:43;;;;;;;2.70;2.50;;;;;;;23.01;88.84;97555.78;4990161;28;20199;-65
2021/08/22 03:29:10;;;;;;;2.57;2.37;;;;;;;23.02;89.50;97560.06;4990969;28;20231;-65
2021/08/22 03:31:36;;;;;;;2.73;2.53;;;;;;;23.00;89.71;97560.03;4991255;28;20271;-64
2021/08/22 03:34:03;;;;;;;2.53;2.33;;;;;;;22.96;89.69;97544.53;4990003;28;20219;-66
2021/08/22 03:36:30;;;;;;;2.20;2.10;;;;;;;23.00;89.37;97566.84;4989994;28;20211;-65
2021/08/22 03:38:56;;;;;;;2.20;2.10;;;;;;;23.02;89.71;97576.31;4990494;28;20306;-65
2021/08/22 03:41:23;;;;;;;2.57;2.30;;;;;;;23.01;89.44;97589.09;4991097;28;20359;-64
2021/08/22 03:43:49;;;;;;;2.40;2.30;;;;;;;23.02;89.48;97594.28;4991030;28;20218;-67
2021/08/22 03:46:16;;;;;;;3.50;2.40;;;;;;;22.99;89.36;97599.31;4989687;28;20230;-65
2021/08/22 03:48:43;;;;;;;2.77;2.40;;;;;;;23.03;89.30;97610.50;4991039;28;20631;-64
2021/08/22 03:51:09;;;;;;;2.53;2.33;;;;;;;23.02;89.52;97614.78;4991025;28;20241;-65
2021/08/22 03:53:36;;;;;;;2.87;2.53;;;;;;;23.03;89.50;97625.88;4990888;28;20362;-64
2021/08/22 03:56:02;;;;;;;2.70;2.50;;;;;;;23.02;89.56;97627.59;4990666;28;20238;-65
2021/08/22 03:58:29;;;;;;;2.50;2.30;;;;;;;23.01;89.64;97625.00;4989445;28;20632;-64
2021/08/22 04:00:55;;;;;;;2.37;2.20;;;;;;;23.01;89.62;97619.88;4989670;28;20758;-65
2021/08/22 04:03:23;;;;;;;2.30;2.20;;;;;;;23.02;89.44;97617.34;4989843;28;20218;-66
2021/08/22 04:05:50;;;;;;;2.23;2.13;;;;;;;23.01;89.69;97620.72;4991001;28;20231;-64
2021/08/22 04:08:23;;;;;;;2.20;2.00;;;;;;;22.97;89.61;97611.22;4990965;28;20507;-64
2021/08/22 04:10:50;;;;;;;2.77;2.57;;;;;;;23.02;89.60;97617.34;4974309;28;20226;-65
2021/08/22 04:13:19;;;;;;;2.30;2.20;;;;;;;23.02;89.54;97612.22;4990246;28;20227;-66
2021/08/22 04:15:46;;;;;;;2.70;2.50;;;;;;;23.00;89.57;97612.97;4990400;28;20243;-65
2021/08/22 04:18:12;;;;;;;2.33;2.13;;;;;;;22.85;89.50;97586.97;4989584;28;20237;-65
2021/08/22 04:20:39;;;;;;;2.37;2.23;;;;;;;23.03;89.50;97631.88;4962341;28;20242;-63
2021/08/22 04:23:07;;;;;;;2.93;2.23;;;;;;;22.97;89.59;97611.22;4989489;28;20321;-66
2021/08/22 04:25:33;;;;;;;3.57;2.20;;;;;;;23.02;89.61;97631.84;4987929;28;20215;-64
2021/08/22 04:28:00;;;;;;;2.70;2.50;;;;;;;23.02;89.57;97636.97;4972807;28;20294;-65
2021/08/22 04:30:26;;;;;;;4.73;2.33;;;;;;;23.03;89.56;97636.13;4990921;28;20207;-64
2021/08/22 04:32:53;;;;;;;2.13;2.03;;;;;;;23.03;89.61;97643.81;4962507;28;20222;-65
2021/08/22 04:35:20;;;;;;;2.37;2.17;;;;;;;23.02;89.55;97642.97;4990735;28;20291;-65
2021/08/22 04:37:47;;;;;;;2.50;2.30;;;;;;;23.02;89.88;97645.53;4988784;28;20199;-65
2021/08/22 04:40:13;;;;;;;2.27;2.17;;;;;;;22.95;89.62;97632.53;4989167;28;20692;-65
2021/08/22 04:42:40;;;;;;;2.33;2.23;;;;;;;23.00;89.72;97636.94;4988986;28;20288;-64
2021/08/22 04:45:07;;;;;;;2.37;2.27;;;;;;;22.98;89.66;97648.00;4981770;28;20306;-64
2021/08/22 04:47:33;;;;;;;2.37;2.20;;;;;;;23.02;89.55;97648.09;4988503;28;20245;-64
2021/08/22 04:50:00;;;;;;;2.30;2.20;;;;;;;23.01;89.94;97646.34;4989124;28;20198;-66
2021/08/22 04:52:27;;;;;;;2.20;2.10;;;;;;;22.96;89.48;97632.56;4991382;28;20203;-64
2021/08/22 04:54:53;;;;;;;2.30;2.20;;;;;;;23.01;90.02;97643.78;4989811;28;20663;-65
2021/08/22 04:57:20;;;;;;;2.40;2.20;;;;;;;23.03;89.91;97638.69;4989259;28;20230;-66
2021/08/22 04:59:46;;;;;;;2.50;2.30;;;;;;;23.03;90.05;97633.56;4989538;28;20234;-65
2021/08/22 05:02:13;;;;;;;2.33;2.20;;;;;;;23.03;90.01;97633.56;4981915;28;20769;-65
2021/08/22 05:04:40;;;;;;;2.53;2.33;;;;;;;22.94;89.45;97608.59;4990390;28;20234;-64
2021/08/22 05:07:06;;;;;;;2.40;2.20;;;;;;;23.00;89.75;97616.44;4988899;28;20234;-65
2021/08/22 05:09:33;;;;;;;2.83;2.57;;;;;;;23.00;89.58;97624.13;4989424;28;20239;-67
2021/08/22 05:12:00;;;;;;;2.17;2.07;;;;;;;22.98;89.50;97615.50;4990861;28;20239;-65
2021/08/22 05:14:30;;;;;;;2.43;2.23;;;;;;;22.99;89.73;97618.94;4989951;28;20253;-64
2021/08/22 05:16:57;;;;;;;2.23;2.13;;;;;;;22.98;89.59;97618.06;4989366;28;20222;-66
2021/08/22 05:19:23;;;;;;;3.37;2.10;;;;;;;22.98;89.02;97630.88;4990442;28;20207;-64
2021/08/22 05:21:50;;;;;;;2.40;2.20;;;;;;;22.97;89.75;97624.03;4989237;28;20211;-65
2021/08/22 05:24:17;;;;;;;2.37;2.27;;;;;;;22.97;89.80;97629.16;4988890;28;20670;-65
2021/08/22 05:26:43;;;;;;;2.23;2.13;;;;;;;22.92;89.75;97615.34;4975335;28;20234;-65
2021/08/22 05:29:10;;;;;;;2.20;2.10;;;;;;;22.97;89.99;97629.16;4988752;28;20226;-65
2021/08/22 05:31:36;;;;;;;2.90;2.30;;;;;;;22.98;89.76;97640.28;4979753;28;20238;-64
2021/08/22 05:34:03;;;;;;;2.20;2.10;;;;;;;22.98;89.85;97641.13;4990446;28;20619;-64
2021/08/22 05:36:34;;;;;;;2.07;1.97;;;;;;;22.98;89.79;97636.00;4980033;28;20665;-65
2021/08/22 05:39:01;;;;;;;2.50;2.30;;;;;;;22.94;90.30;97629.09;4988817;28;20298;-65
2021/08/22 05:41:27;;;;;;;2.20;2.10;;;;;;;22.95;89.71;97624.84;4988598;28;20692;-65
2021/08/22 05:43:54;;;;;;;2.50;2.30;;;;;;;22.99;89.83;97642.91;4988666;28;20309;-64
2021/08/22 05:46:20;;;;;;;2.57;2.37;;;;;;;22.95;89.64;97641.06;4989984;28;20303;-64
2021/08/22 05:48:47;;;;;;;2.30;2.20;;;;;;;23.00;89.77;97641.19;4988658;28;20203;-64
2021/08/22 05:51:14;;;;;;;3.67;2.40;;;;;;;23.00;89.81;97651.44;4990058;28;20234;-65
2021/08/22 05:53:44;;;;;;;2.43;2.23;;;;;;;22.84;89.72;97621.13;4988414;28;20277;-67
2021/08/22 05:56:11;;;;;;;2.57;2.30;;;;;;;22.87;89.94;97626.34;4988739;28;20294;-64
2021/08/22 05:58:37;;;;;;;2.30;2.20;;;;;;;22.96;89.67;97650.50;4986243;28;20301;-67
2021/08/22 06:01:04;;;;;;;2.33;2.23;;;;;;;23.00;89.76;97667.69;4971419;28;20203;-65
2021/08/22 06:03:31;;;;;;;2.37;2.20;;;;;;;23.00;89.74;97654.88;4989845;28;20231;-65
2021/08/22 06:05:58;;;;;;;4.53;2.33;;;;;;;23.01;89.70;97655.75;4989502;28;20607;-64
2021/08/22 06:08:25;;;;;;;2.50;2.00;;;;;;;23.00;89.82;97664.25;4988180;28;20235;-65
2021/08/22 06:10:51;;;;;;;2.67;2.13;;;;;;;22.96;89.66;97659.88;4989872;28;20245;-64
2021/08/22 06:13:18;;;;;;;2.30;2.10;;;;;;;23.00;89.50;97672.81;4970991;28;20258;-65
2021/08/22 06:15:44;;;;;;;2.43;2.23;;;;;;;22.96;89.87;97647.94;4989815;28;20238;-67
2021/08/22 06:18:11;;;;;;;2.27;2.10;;;;;;;22.96;89.94;97647.06;4972175;28;20837;-64
2021/08/22 06:20:38;;;;;;;2.17;2.07;;;;;;;23.01;89.89;97658.31;4971659;28;20686;-65
2021/08/22 06:23:13;;;;;;;2.20;2.10;;;;;;;23.00;89.89;97656.56;4988235;28;20782;-66
2021/08/22 06:25:40;;;;;;;2.13;2.03;;;;;;;23.01;89.62;97653.19;4987696;28;20261;-65
2021/08/22 06:28:07;;;;;;;2.00;1.90;;;;;;;22.96;89.95;97642.81;4989433;28;20245;-65
2021/08/22 06:30:33;;;;;;;2.30;2.20;;;;;;;22.89;89.97;97642.63;4987571;28;20297;-65
2021/08/22 06:33:00;;;;;;;2.30;2.20;;;;;;;22.99;89.74;97662.53;4987358;28;20207;-65
2021/08/22 06:35:26;;;;;;;1.90;1.80;;;;;;;23.00;90.05;97665.13;4987822;28;20298;-65
2021/08/22 06:37:53;;;;;;;2.20;2.10;;;;;;;23.00;89.71;97660.00;4988719;28;20661;-65
2021/08/22 06:40:20;;;;;;;2.20;2.10;;;;;;;22.96;89.89;97654.75;4989747;28;20211;-65
2021/08/22 06:42:46;;;;;;;1.90;1.80;;;;;;;22.96;89.82;97657.31;4988636;28;20238;-65
2021/08/22 06:45:13;;;;;;;2.33;2.13;;;;;;;23.00;90.17;97662.56;4987308;28;20231;-65
2021/08/22 06:47:39;;;;;;;2.30;2.20;;;;;;;23.00;89.83;97660.00;4988848;28;20258;-65
2021/08/22 06:50:06;;;;;;;2.20;2.10;;;;;;;23.01;89.76;97655.75;4988999;28;20253;-64
2021/08/22 06:52:33;;;;;;;2.20;2.10;;;;;;;23.01;89.83;97648.06;4988619;28;20680;-65
2021/08/22 06:55:00;;;;;;;3.33;2.10;;;;;;;22.84;89.55;97628.81;4988960;28;20230;-66
2021/08/22 06:57:26;;;;;;;2.20;2.10;;;;;;;22.96;90.02;97642.81;4970912;28;20290;-65
2021/08/22 06:59:53;;;;;;;2.53;2.33;;;;;;;23.00;89.87;97660.00;4987372;28;20234;-64
2021/08/22 07:02:19;;;;;;;2.40;2.20;;;;;;;23.01;89.49;97658.31;4983674;28;20249;-65
2021/08/22 07:04:46;;;;;;;2.17;2.07;;;;;;;23.00;90.15;97654.88;4988669;28;20281;-65
2021/08/22 07:07:13;;;;;;;2.30;2.20;;;;;;;23.00;89.86;97651.44;4988289;28;20265;-65
2021/08/22 07:09:40;;;;;;;2.10;2.00;;;;;;;22.85;89.91;97627.97;4988126;28;20619;-64
2021/08/22 07:12:07;;;;;;;2.00;1.90;;;;;;;22.97;89.89;97652.22;4985968;28;20207;-64
2021/08/22 07:14:33;;;;;;;2.20;2.10;;;;;;;23.00;89.90;97649.75;4954923;28;20233;-64
2021/08/22 07:17:00;;;;;;;2.30;2.20;;;;;;;22.97;89.87;97639.41;4986964;28;20286;-66
2021/08/22 07:19:28;;;;;;;3.00;2.07;;;;;;;23.02;89.99;97650.66;4973334;28;20207;-65
2021/08/22 07:21:55;;;;;;;2.20;2.10;;;;;;;22.97;89.92;97646.22;4988053;28;20297;-64
2021/08/22 07:24:22;;;;;;;2.60;2.40;;;;;;;22.99;89.87;97649.72;4986463;28;20712;-64
2021/08/22 07:26:48;;;;;;;2.20;2.10;;;;;;;22.99;89.91;97647.16;4988059;28;20207;-65
2021/08/22 07:29:15;;;;;;;2.33;2.00;;;;;;;22.96;89.98;97650.50;4986812;28;20578;-65
2021/08/22 07:31:41;;;;;;;2.27;2.07;;;;;;;22.95;89.99;97646.19;4988223;28;20246;-65
2021/08/22 07:34:08;;;;;;;1.90;1.80;;;;;;;22.97;89.85;97661.59;4984300;28;20254;-65
2021/08/22 07:36:34;;;;;;;2.17;2.07;;;;;;;22.97;90.05;97656.47;4976633;28;20258;-65
2021/08/22 07:39:01;;;;;;;2.23;2.07;;;;;;;22.97;90.07;97653.91;4988030;28;20651;-64
2021/08/22 07:41:28;;;;;;;2.23;2.13;;;;;;;22.96;90.07;97658.19;4988235;28;20408;-65
2021/08/22 07:43:54;;;;;;;1.90;1.80;;;;;;;22.97;90.10;97664.16;4988105;28;20293;-65
2021/08/22 07:46:21;;;;;;;3.00;2.00;;;;;;;22.97;90.05;97659.94;4988056;28;20266;-66
2021/08/22 07:48:48;;;;;;;2.07;1.97;;;;;;;22.97;89.86;97657.34;4987855;28;20207;-65
2021/08/22 07:51:15;;;;;;;2.40;2.30;;;;;;;22.99;89.92;97665.09;4987994;28;20242;-65
2021/08/22 07:53:42;;;;;;;2.03;1.93;;;;;;;22.82;89.95;97627.91;4987364;28;20254;-65
2021/08/22 07:56:08;;;;;;;2.50;2.30;;;;;;;22.98;90.01;97650.56;4986502;28;20234;-65
2021/08/22 07:58:35;;;;;;;2.20;2.00;;;;;;;22.96;90.12;97649.63;4987640;28;20290;-64
2021/08/22 08:01:02;;;;;;;2.47;2.27;;;;;;;22.94;90.18;97648.72;4986448;28;20645;-66
2021/08/22 08:03:28;;;;;;;4.93;2.00;;;;;;;22.95;90.08;97648.75;4970113;28;20233;-65
2021/08/22 08:05:55;;;;;;;2.00;1.90;;;;;;;22.95;90.23;97641.06;4986279;28;21024;-65
2021/08/22 08:08:22;;;;;;;2.20;2.10;;;;;;;22.99;90.05;97644.59;4987297;28;20237;-65
2021/08/22 08:10:49;;;;;;;2.10;2.00;;;;;;;22.99;90.01;97642.03;4987891;28;20652;-65
2021/08/22 08:13:16;;;;;;;2.20;2.10;;;;;;;23.00;89.51;97646.31;4987437;28;20276;-65
2021/08/22 08:15:42;;;;;;;2.67;1.97;;;;;;;22.93;90.10;97626.50;4987668;28;20234;-64
2021/08/22 08:18:09;;;;;;;2.30;2.20;;;;;;;23.00;90.03;97643.75;4986585;28;20207;-65
2021/08/22 08:20:36;;;;;;;2.20;2.10;;;;;;;23.00;90.03;97636.06;4986376;28;20245;-66
2021/08/22 08:23:03;;;;;;;2.93;1.97;;;;;;;22.93;89.99;97626.50;4986967;28;20234;-64
2021/08/22 08:25:29;;;;;;;2.10;2.00;;;;;;;22.96;90.05;97634.25;4974218;28;20331;-66
2021/08/22 08:27:56;;;;;;;2.13;2.03;;;;;;;22.95;89.98;97635.94;4974141;28;20943;-65
2021/08/22 08:30:23;;;;;;;2.43;2.23;;;;;;;22.96;89.95;97639.38;4958254;28;20245;-64
2021/08/22 08:32:49;;;;;;;1.97;1.87;;;;;;;23.00;90.02;97654.88;4989708;28;20574;-65
2021/08/22 08:35:17;;;;;;;2.30;2.20;;;;;;;22.99;89.99;97654.84;4991594;28;20596;-65
2021/08/22 08:37:43;;;;;;;2.03;1.93;;;;;;;22.82;89.94;97622.78;4990946;28;20264;-65
2021/08/22 08:40:20;;;;;;;2.20;2.10;;;;;;;23.00;90.05;97648.88;4990097;28;20294;-65
2021/08/22 08:42:57;;;;;;;2.30;2.10;;;;;;;22.87;90.04;97640.03;4974537;28;20245;-65
2021/08/22 08:45:31;;;;;;;2.03;1.93;;;;;;;23.00;90.02;97654.88;4985278;28;20599;-64
2021/08/22 08:47:58;;;;;;;2.00;1.90;;;;;;;23.00;90.39;97652.31;4988371;28;20261;-65
2021/08/22 08:50:28;;;;;;;2.30;2.10;;;;;;;23.00;90.07;97654.00;4991571;28;20309;-67
2021/08/22 08:53:06;;;;;;;2.00;1.90;;;;;;;23.01;90.09;97650.63;4991015;28;20209;-65
2021/08/22 08:55:34;;;;;;;2.17;2.07;;;;;;;23.00;90.05;97652.31;4986722;28;20220;-65
2021/08/22 08:58:01;;;;;;;1.93;1.83;;;;;;;23.00;90.07;97660.00;4987187;28;20257;-64
2021/08/22 09:00:35;;;;;;;2.13;2.03;;;;;;;23.00;90.13;97651.44;4990960;28;20298;-65
2021/08/22 09:03:03;;;;;;;2.00;1.90;;;;;;;22.94;90.17;97646.16;4988973;28;20226;-64
2021/08/22 09:05:42;;;;;;;1.97;1.87;;;;;;;23.00;90.09;97654.00;4990505;28;20660;-66
2021/08/22 09:08:24;;;;;;;2.10;2.00;;;;;;;22.99;89.99;97650.59;4983926;28;20564;-65
2021/08/22 09:10:56;;;;;;;1.93;1.83;;;;;;;23.01;89.78;97642.94;4990489;28;20231;-65
2021/08/22 09:14:00;;;;;;;2.00;1.90;;;;;;;23.00;90.05;97636.06;4990287;28;20255;-63
2021/08/22 09:16:49;;;;;;;1.80;1.70;;;;;;;23.00;89.97;97641.19;4986624;28;20635;-64
2021/08/22 09:19:52;;;;;;;1.93;1.83;;;;;;;23.00;90.00;97641.19;4990903;28;20217;-66
2021/08/22 09:22:37;;;;;;;2.17;2.07;;;;;;;22.99;89.99;97650.59;4987502;28;20238;-65
2021/08/22 09:25:42;;;;;;;2.10;2.00;;;;;;;23.00;90.08;97648.88;4990356;28;20226;-65
2021/08/22 09:28:46;;;;;;;2.30;2.20;;;;;;;22.99;90.11;97637.78;4983341;28;20647;-65
2021/08/22 09:31:50;;;;;;;1.90;1.80;;;;;;;22.98;90.08;97641.13;4990181;28;20265;-65
2021/08/22 09:34:38;;;;;;;2.10;2.00;;;;;;;22.97;90.05;97641.97;4989725;28;20707;-66
2021/08/22 09:37:07;;;;;;;4.87;2.00;;;;;;;22.96;89.99;97647.94;4989183;28;20246;-65
2021/08/22 09:40:12;;;;;;;2.10;2.00;;;;;;;22.96;90.17;97649.63;4989576;28;20721;-66
2021/08/22 09:43:16;;;;;;;2.30;2.13;;;;;;;22.95;90.15;97645.34;4986590;28;20293;-64
2021/08/22 09:46:20;;;;;;;2.23;1.97;;;;;;;22.94;90.22;97636.78;4987932;28;20254;-65
2021/08/22 09:49:42;;;;;;;2.47;2.07;;;;;;;22.93;90.43;97622.25;4988380;28;20289;-67
2021/08/22 09:52:35;;;;;;;2.20;2.10;;;;;;;22.94;90.46;97625.66;4941244;29;20761;-65
2021/08/22 09:55:37;;;;;;;2.10;2.00;;;;;;;22.94;90.30;97621.41;4988156;28;20219;-66
2021/08/22 09:58:25;;;;;;;2.60;2.03;;;;;;;22.95;90.35;97624.84;4985887;28;20203;-64
2021/08/22 10:01:36;;;;;;;2.00;1.90;;;;;;;22.95;90.47;97624.84;4989296;28;20203;-66
2021/08/22 10:04:31;;;;;;;1.90;1.80;;;;;;;22.95;90.15;97623.13;4970418;28;20724;-65
2021/08/22 10:07:13;;;;;;;1.97;1.87;;;;;;;22.96;90.30;97631.69;4988122;28;20262;-65
2021/08/22 10:09:58;;;;;;;2.00;1.90;;;;;;;22.96;90.36;97634.25;4989276;28;20289;-65
2021/08/22 10:12:24;;;;;;;1.97;1.87;;;;;;;22.95;90.49;97630.81;4987896;28;20850;-65
2021/08/22 10:14:51;;;;;;;2.10;2.00;;;;;;;22.96;90.22;97631.69;4989245;28;20223;-66
2021/08/22 10:17:25;;;;;;;2.00;1.90;;;;;;;22.75;90.25;97585.03;4989106;28;20849;-65
2021/08/22 10:19:53;;;;;;;1.80;1.70;;;;;;;22.83;90.22;97610.00;4988014;28;20293;-65
2021/08/22 10:22:24;;;;;;;2.13;2.03;;;;;;;22.96;90.31;97630.00;4971657;28;20626;-65
2021/08/22 10:24:55;;;;;;;2.20;2.10;;;;;;;22.96;90.13;97621.44;4987481;28;20246;-65
2021/08/22 10:27:34;;;;;;;2.10;2.00;;;;;;;22.97;90.36;97620.59;4987201;28;20676;-64
2021/08/22 10:30:04;;;;;;;2.17;2.07;;;;;;;22.96;90.32;97622.31;4988696;28;20628;-65
2021/08/22 10:32:33;;;;;;;2.30;2.13;;;;;;;22.95;90.24;97609.47;4988722;28;20214;-65
2021/08/22 10:35:15;;;;;;;1.90;1.80;;;;;;;22.97;90.33;97624.03;4970017;28;20250;-66
2021/08/22 10:37:42;;;;;;;2.00;1.90;;;;;;;22.94;90.26;97607.72;4988704;28;20214;-64
2021/08/22 10:40:21;;;;;;;2.13;2.03;;;;;;;22.98;90.21;97607.81;4955726;28;20281;-63
2021/08/22 10:43:09;;;;;;;2.10;2.00;;;;;;;22.99;90.19;97603.56;4988810;28;20653;-65
2021/08/22 10:45:48;;;;;;;1.93;1.83;;;;;;;22.98;90.09;97612.94;4972398;28;20292;-62
2021/08/22 10:48:23;;;;;;;2.07;1.97;;;;;;;22.98;90.29;97607.81;4984651;28;20257;-65
2021/08/22 10:50:59;;;;;;;2.30;2.10;;;;;;;23.00;90.18;97607.84;4989266;28;20492;-64
2021/08/22 10:53:35;;;;;;;1.80;1.70;;;;;;;22.83;90.26;97579.25;4988430;28;20312;-65
2021/08/22 10:56:23;;;;;;;2.37;2.00;;;;;;;22.98;90.19;97602.69;4979033;28;20234;-65
2021/08/22 10:58:56;;;;;;;2.20;2.10;;;;;;;22.99;90.14;97596.75;4987547;28;20210;-65
2021/08/22 11:01:23;;;;;;;2.07;1.90;;;;;;;22.97;90.12;97597.53;4989082;28;20780;-66
2021/08/22 11:04:11;;;;;;;1.80;1.70;;;;;;;23.00;90.28;97597.59;4986661;28;20718;-65
2021/08/22 11:07:02;;;;;;;2.30;2.10;;;;;;;22.99;90.21;97601.00;4988970;28;20227;-65
2021/08/22 11:09:47;;;;;;;2.00;1.90;;;;;;;22.98;90.24;97594.16;4987257;28;20219;-64
2021/08/22 11:12:21;;;;;;;2.07;1.97;;;;;;;22.95;90.18;97591.53;4985248;28;20202;-65
2021/08/22 11:14:48;;;;;;;2.13;1.97;;;;;;;22.96;89.92;97590.69;4987168;28;20254;-65
2021/08/22 11:17:14;;;;;;;3.10;2.00;;;;;;;22.81;89.72;97567.25;4988519;28;20632;-65
2021/08/22 11:19:41;;;;;;;1.77;1.57;;;;;;;22.95;90.36;97592.38;4987018;28;20242;-63
2021/08/22 11:22:27;;;;;;;2.00;1.90;;;;;;;22.79;90.15;97545.81;4968034;28;20289;-64
2021/08/22 11:24:55;;;;;;;1.90;1.80;;;;;;;23.00;90.05;97582.22;4986546;28;20265;-64
2021/08/22 11:27:23;;;;;;;1.93;1.83;;;;;;;22.82;90.18;97553.59;4986903;28;20266;-65
2021/08/22 11:29:54;;;;;;;1.90;1.80;;;;;;;22.99;90.26;97583.06;4986435;28;20582;-65
2021/08/22 11:32:20;;;;;;;2.00;1.90;;;;;;;22.99;90.65;97585.63;4984563;28;20238;-65
2021/08/22 11:34:47;;;;;;;1.87;1.77;;;;;;;23.00;90.17;97577.09;4986193;28;20786;-64
2021/08/22 11:37:17;;;;;;;1.97;1.87;;;;;;;22.99;90.17;97571.13;4986374;28;20549;-66
2021/08/22 11:39:44;;;;;;;1.90;1.70;;;;;;;22.99;90.35;97562.56;4984987;28;20509;-65
2021/08/22 11:42:10;;;;;;;1.80;1.70;;;;;;;22.99;90.01;97568.56;4988109;28;20215;-65
2021/08/22 11:44:37;;;;;;;1.87;1.77;;;;;;;22.99;89.91;97567.69;4986260;28;20282;-65
2021/08/22 11:47:03;;;;;;;1.87;1.77;;;;;;;22.97;89.80;97559.09;4986206;28;20666;-64
2021/08/22 11:49:30;;;;;;;2.03;1.90;;;;;;;22.91;90.15;97541.00;4987746;28;20254;-64